createdAt,value
2019-04-06T00:02:25.916Z,100.00
2019-04-06T00:04:55.348Z,100.00
2019-04-06T00:07:24.705Z,100.00
2019-04-06T00:09:54.140Z,100.00
2019-04-06T00:12:23.570Z,100.00
2019-04-06T00:14:52.916Z,100.00
2019-04-06T00:17:22.306Z,100.00
2019-04-06T00:19:51.649Z,100.00
2019-04-06T00:22:21.039Z,100.00
2019-04-06T00:24:50.463Z,100.00
2019-04-06T00:27:19.954Z,100.00
2019-04-06T00:29:49.297Z,100.00
2019-04-06T00:32:25.427Z,100.00
2019-04-06T00:34:54.809Z,100.00
2019-04-06T00:37:24.201Z,100.00
2019-04-06T00:39:53.536Z,100.00
2019-04-06T00:42:23.022Z,100.00
2019-04-06T00:44:52.457Z,100.00
2019-04-06T00:47:21.891Z,100.00
2019-04-06T00:49:51.275Z,100.00
2019-04-06T00:52:20.779Z,100.00
2019-04-06T00:54:50.196Z,100.00
2019-04-06T00:57:19.627Z,100.00
2019-04-06T00:59:50.284Z,100.00
2019-04-06T01:02:19.871Z,100.00
2019-04-06T01:04:49.239Z,100.00
2019-04-06T01:07:18.758Z,100.00
2019-04-06T01:09:48.739Z,100.00
2019-04-06T01:12:18.098Z,100.00
2019-04-06T01:14:47.510Z,100.00
2019-04-06T01:17:16.980Z,100.00
2019-04-06T01:19:46.411Z,100.00
2019-04-06T01:22:15.916Z,100.00
2019-04-06T01:24:45.282Z,100.00
2019-04-06T01:27:14.785Z,100.00
2019-04-06T01:29:44.099Z,100.00
2019-04-06T01:32:13.425Z,100.00
2019-04-06T01:34:42.887Z,100.00
2019-04-06T01:37:12.259Z,100.00
2019-04-06T01:39:41.567Z,100.00
2019-04-06T01:42:11.084Z,100.00
2019-04-06T01:44:40.458Z,100.00
2019-04-06T01:47:09.798Z,100.00
2019-04-06T01:49:39.188Z,100.00
2019-04-06T01:52:08.892Z,100.00
2019-04-06T01:54:38.486Z,100.00
2019-04-06T01:57:07.895Z,100.00
2019-04-06T01:59:37.245Z,100.00
2019-04-06T02:02:25.595Z,100.00
2019-04-06T02:04:54.995Z,100.00
2019-04-06T02:07:24.421Z,100.00
2019-04-06T02:09:53.803Z,100.00
2019-04-06T02:12:23.178Z,100.00
2019-04-06T02:14:52.643Z,100.00
2019-04-06T02:17:22.125Z,100.00
2019-04-06T02:19:51.546Z,100.00
2019-04-06T02:22:20.937Z,100.00
2019-04-06T02:24:50.277Z,100.00
2019-04-06T02:27:19.661Z,100.00
2019-04-06T02:29:51.450Z,100.00
2019-04-06T02:32:29.629Z,100.00
2019-04-06T02:35:16.360Z,100.00
2019-04-06T02:37:57.847Z,100.00
2019-04-06T02:40:41.290Z,100.00
2019-04-06T02:43:22.386Z,100.00
2019-04-06T02:45:51.850Z,100.00
2019-04-06T02:48:21.394Z,100.00
2019-04-06T02:50:51.081Z,100.00
2019-04-06T02:53:20.376Z,100.00
2019-04-06T02:55:49.839Z,100.00
2019-04-06T02:58:19.394Z,100.00
2019-04-06T03:00:49.024Z,100.00
2019-04-06T03:03:18.374Z,100.00
2019-04-06T03:05:48.028Z,100.00
2019-04-06T03:08:17.520Z,100.00
2019-04-06T03:10:46.881Z,100.00
2019-04-06T03:13:16.595Z,100.00
2019-04-06T03:15:46.118Z,100.00
2019-04-06T03:18:15.723Z,100.00
2019-04-06T03:20:45.141Z,100.00
2019-04-06T03:23:14.569Z,100.00
2019-04-06T03:25:43.916Z,100.00
2019-04-06T03:28:13.284Z,100.00
2019-04-06T03:30:42.616Z,100.00
2019-04-06T03:33:12.204Z,100.00
2019-04-06T03:35:47.302Z,100.00
2019-04-06T03:38:12.955Z,100.00
2019-04-06T03:40:42.297Z,100.00
2019-04-06T03:43:11.700Z,100.00
2019-04-06T03:45:41.054Z,100.00
2019-04-06T03:48:10.439Z,100.00
2019-04-06T03:50:40.018Z,100.00
2019-04-06T03:53:09.737Z,100.00
2019-04-06T03:55:39.092Z,100.00
2019-04-06T03:58:08.607Z,100.00
2019-04-06T04:00:38.174Z,100.00
2019-04-06T04:03:07.642Z,100.00
2019-04-06T04:05:37.260Z,100.00
2019-04-06T04:08:06.901Z,100.00
2019-04-06T04:10:38.082Z,100.00
2019-04-06T04:13:07.468Z,100.00
2019-04-06T04:15:37.126Z,100.00
2019-04-06T04:18:06.530Z,100.00
2019-04-06T04:20:35.855Z,100.00
2019-04-06T04:23:05.378Z,100.00
2019-04-06T04:25:34.813Z,100.00
2019-04-06T04:28:04.376Z,100.00
2019-04-06T04:30:34.717Z,100.00
2019-04-06T04:33:04.472Z,100.00
2019-04-06T04:35:33.837Z,100.00
2019-04-06T04:38:03.301Z,100.00
2019-04-06T04:40:32.627Z,100.00
2019-04-06T04:43:02.243Z,100.00
2019-04-06T04:45:31.603Z,100.00
2019-04-06T04:48:00.926Z,100.00
2019-04-06T04:50:30.356Z,100.00
2019-04-06T04:52:59.743Z,100.00
2019-04-06T04:55:29.107Z,100.00
2019-04-06T04:57:58.490Z,100.00
2019-04-06T05:00:27.785Z,100.00
2019-04-06T05:02:57.125Z,100.00
2019-04-06T05:05:26.561Z,100.00
2019-04-06T05:07:56.058Z,100.00
2019-04-06T05:10:25.413Z,100.00
2019-04-06T05:12:54.784Z,100.00
2019-04-06T05:15:48.915Z,100.00
2019-04-06T05:18:18.249Z,100.00
2019-04-06T05:20:47.595Z,100.00
2019-04-06T05:23:16.927Z,100.00
2019-04-06T05:25:46.355Z,100.00
2019-04-06T05:28:15.757Z,100.00
2019-04-06T05:30:45.135Z,100.00
2019-04-06T05:33:14.505Z,100.00
2019-04-06T05:35:43.823Z,100.00
2019-04-06T05:38:13.280Z,100.00
2019-04-06T05:40:42.763Z,100.00
2019-04-06T05:43:12.141Z,100.00
2019-04-06T05:45:41.641Z,100.00
2019-04-06T05:48:11.006Z,100.00
2019-04-06T05:50:40.419Z,100.00
2019-04-06T05:53:10.020Z,100.00
2019-04-06T05:55:39.757Z,100.00
2019-04-06T05:58:10.594Z,100.00
2019-04-06T06:00:41.251Z,100.00
2019-04-06T06:03:11.398Z,100.00
2019-04-06T06:05:41.223Z,100.00
2019-04-06T06:08:10.739Z,100.00
2019-04-06T06:10:40.128Z,100.00
2019-04-06T06:13:09.532Z,100.00
2019-04-06T06:15:38.864Z,98.80
2019-04-06T06:18:08.234Z,96.67
2019-04-06T06:20:37.821Z,94.22
2019-04-06T06:23:07.145Z,91.28
2019-04-06T06:25:36.521Z,89.39
2019-04-06T06:28:14.142Z,87.68
2019-04-06T06:30:37.075Z,85.84
2019-04-06T06:33:06.333Z,84.22
2019-04-06T06:35:35.769Z,81.34
2019-04-06T06:38:05.174Z,73.89
2019-04-06T06:40:34.497Z,69.90
2019-04-06T06:43:03.821Z,66.84
2019-04-06T06:45:33.264Z,67.10
2019-04-06T06:48:02.637Z,66.29
2019-04-06T06:50:34.299Z,66.56
2019-04-06T06:53:03.076Z,68.42
2019-04-06T06:55:32.577Z,64.87
2019-04-06T06:58:01.934Z,65.79
2019-04-06T07:00:31.390Z,66.01
2019-04-06T07:03:01.001Z,60.44
2019-04-06T07:05:30.470Z,57.14
2019-04-06T07:07:59.850Z,59.04
2019-04-06T07:10:29.168Z,58.32
2019-04-06T07:12:58.571Z,55.72
2019-04-06T07:15:28.034Z,55.02
2019-04-06T07:17:57.375Z,54.01
2019-04-06T07:20:27.075Z,52.89
2019-04-06T07:22:56.653Z,54.08
2019-04-06T07:25:26.016Z,51.88
2019-04-06T07:27:55.558Z,56.54
2019-04-06T07:30:24.926Z,59.47
2019-04-06T07:32:55.450Z,64.16
2019-04-06T07:35:25.287Z,61.27
2019-04-06T07:37:54.698Z,60.18
2019-04-06T07:40:24.263Z,57.22
2019-04-06T07:42:53.775Z,53.49
2019-04-06T07:45:23.223Z,53.57
2019-04-06T07:47:52.571Z,54.53
2019-04-06T07:50:22.138Z,56.05
2019-04-06T07:52:51.536Z,53.13
2019-04-06T07:55:20.830Z,55.99
2019-04-06T07:57:50.230Z,51.26
2019-04-06T08:00:20.145Z,48.13
2019-04-06T08:02:49.589Z,45.26
2019-04-06T08:05:19.156Z,42.22
2019-04-06T08:07:48.683Z,39.55
2019-04-06T08:10:18.208Z,36.82
2019-04-06T08:12:47.664Z,34.77
2019-04-06T08:15:17.599Z,36.50
2019-04-06T08:17:46.985Z,39.81
2019-04-06T08:20:16.373Z,41.68
2019-04-06T08:22:45.878Z,38.82
2019-04-06T08:25:15.254Z,36.50
2019-04-06T08:27:44.641Z,36.41
2019-04-06T08:30:26.308Z,35.94
2019-04-06T08:32:55.667Z,35.36
2019-04-06T08:35:26.607Z,34.86
2019-04-06T08:37:56.351Z,38.99
2019-04-06T08:40:25.819Z,40.26
2019-04-06T08:42:55.474Z,44.11
2019-04-06T08:45:24.862Z,42.29
2019-04-06T08:47:54.490Z,39.00
2019-04-06T08:50:23.864Z,38.36
2019-04-06T08:52:53.198Z,38.36
2019-04-06T08:55:26.922Z,35.84
2019-04-06T08:57:56.277Z,38.82
2019-04-06T09:00:25.706Z,38.82
2019-04-06T09:02:55.058Z,35.39
2019-04-06T09:05:24.679Z,31.12
2019-04-06T09:08:41.748Z,34.72
2019-04-06T09:11:11.436Z,35.44
2019-04-06T09:13:41.175Z,37.06
2019-04-06T09:16:24.861Z,35.50
2019-04-06T09:19:06.880Z,41.15
2019-04-06T09:21:36.427Z,40.12
2019-04-06T09:24:05.798Z,31.93
2019-04-06T09:26:43.906Z,31.93
2019-04-06T09:29:23.564Z,32.55
2019-04-06T09:31:55.744Z,32.26
2019-04-06T09:34:41.692Z,32.17
2019-04-06T09:37:11.268Z,33.58
2019-04-06T09:39:40.906Z,33.20
2019-04-06T09:42:10.244Z,33.80
2019-04-06T09:44:46.587Z,34.43
2019-04-06T09:47:28.945Z,36.54
2019-04-06T09:50:08.587Z,36.95
2019-04-06T09:52:55.436Z,34.28
2019-04-06T09:55:57.873Z,35.18
2019-04-06T09:59:01.210Z,34.84
2019-04-06T10:01:53.589Z,35.10
2019-04-06T10:04:45.371Z,36.20
2019-04-06T10:07:36.676Z,36.05
2019-04-06T10:10:21.763Z,36.82
2019-04-06T10:13:05.500Z,35.16
2019-04-06T10:15:59.598Z,34.11
2019-04-06T10:18:48.320Z,32.06
2019-04-06T10:21:34.634Z,38.18
2019-04-06T10:24:32.486Z,31.36
2019-04-06T10:27:30.827Z,33.07
2019-04-06T10:30:39.319Z,32.63
2019-04-06T10:33:44.225Z,32.21
2019-04-06T10:36:20.403Z,31.33
2019-04-06T10:42:22.562Z,31.90
2019-04-06T10:45:27.475Z,35.44
2019-04-06T10:48:25.071Z,34.61
2019-04-06T10:51:07.840Z,33.77
2019-04-06T10:53:43.910Z,30.95
2019-04-06T10:56:35.204Z,34.03
2019-04-06T10:59:38.138Z,30.84
2019-04-06T11:02:24.809Z,34.04
2019-04-06T11:05:13.073Z,32.06
2019-04-06T11:07:49.914Z,32.85
2019-04-06T11:10:33.806Z,33.42
2019-04-06T11:13:44.567Z,32.42
2019-04-06T11:16:42.782Z,30.85
2019-04-06T11:19:37.678Z,30.02
2019-04-06T11:22:35.587Z,31.86
2019-04-06T11:25:24.212Z,31.39
2019-04-06T11:28:24.014Z,31.44
2019-04-06T11:31:21.252Z,30.83
2019-04-06T11:34:03.356Z,30.68
2019-04-06T11:36:43.234Z,30.85
2019-04-06T11:39:29.940Z,30.42
2019-04-06T11:42:26.981Z,33.21
2019-04-06T11:45:17.807Z,32.35
2019-04-06T11:48:17.396Z,32.18
2019-04-06T11:51:05.117Z,33.48
2019-04-06T11:53:42.772Z,31.87
2019-04-06T11:57:09.799Z,28.95
2019-04-06T12:00:04.110Z,28.51
2019-04-06T12:02:52.597Z,29.61
2019-04-06T12:05:46.875Z,32.26
2019-04-06T12:08:33.116Z,31.33
2019-04-06T12:11:21.636Z,31.10
2019-04-06T12:14:10.385Z,31.96
2019-04-06T12:16:48.776Z,28.59
2019-04-06T12:19:25.701Z,27.96
2019-04-06T12:22:25.984Z,26.89
2019-04-06T12:25:15.282Z,27.78
2019-04-06T12:28:24.160Z,29.22
2019-04-06T12:31:24.457Z,31.54
2019-04-06T12:34:04.923Z,31.61
2019-04-06T12:37:05.381Z,32.94
2019-04-06T12:39:53.098Z,36.03
2019-04-06T12:42:40.418Z,40.88
2019-04-06T12:45:41.630Z,38.93
2019-04-06T12:48:28.505Z,35.43
2019-04-06T12:51:19.761Z,33.57
2019-04-06T12:53:54.738Z,34.26
2019-04-06T12:59:36.077Z,39.10
2019-04-06T13:05:20.182Z,41.52
2019-04-06T13:08:01.038Z,44.10
2019-04-06T13:10:58.255Z,42.40
2019-04-06T13:13:45.400Z,38.79
2019-04-06T13:16:29.492Z,36.58
2019-04-06T13:19:18.058Z,41.63
2019-04-06T13:22:16.085Z,42.79
2019-04-06T13:25:04.824Z,44.15
2019-04-06T13:27:53.625Z,44.24
2019-04-06T13:30:40.672Z,45.98
2019-04-06T13:33:27.884Z,49.05
2019-04-06T13:36:14.966Z,49.05
2019-04-06T13:39:01.804Z,48.02
2019-04-06T13:41:53.034Z,48.68
2019-04-06T13:44:52.617Z,50.68
2019-04-06T13:47:38.959Z,52.59
2019-04-06T13:50:26.494Z,53.68
2019-04-06T13:53:17.521Z,54.33
2019-04-06T13:55:54.648Z,53.73
2019-04-06T13:59:01.000Z,52.76
2019-04-06T14:01:39.441Z,52.20
2019-04-06T14:04:26.216Z,52.45
2019-04-06T14:07:09.149Z,52.59
2019-04-06T14:09:56.163Z,52.75
2019-04-06T14:12:43.297Z,53.34
2019-04-06T14:15:43.721Z,52.52
2019-04-06T14:18:30.527Z,51.47
2019-04-06T14:21:21.934Z,51.72
2019-04-06T14:24:09.103Z,51.32
2019-04-06T14:26:53.222Z,51.36
2019-04-06T14:29:40.178Z,51.15
2019-04-06T14:32:26.823Z,50.82
2019-04-06T14:35:27.005Z,50.91
2019-04-06T14:38:08.937Z,51.13
2019-04-06T14:41:11.306Z,50.32
2019-04-06T14:44:05.802Z,46.26
2019-04-06T14:47:04.016Z,42.14
2019-04-06T14:49:48.984Z,43.52
2019-04-06T14:52:46.248Z,41.67
2019-04-06T14:55:25.532Z,45.72
2019-04-06T14:58:12.565Z,45.47
2019-04-06T15:01:05.852Z,49.75
2019-04-06T15:03:57.618Z,48.57
2019-04-06T15:06:51.728Z,51.76
2019-04-06T15:09:40.059Z,48.00
2019-04-06T15:12:37.338Z,47.34
2019-04-06T15:15:18.643Z,45.53
2019-04-06T15:18:07.226Z,43.77
2019-04-06T15:21:04.322Z,43.31
2019-04-06T15:23:55.906Z,43.26
2019-04-06T15:26:34.744Z,43.68
2019-04-06T15:29:27.457Z,41.79
2019-04-06T15:32:21.510Z,40.15
2019-04-06T15:35:12.366Z,42.32
2019-04-06T15:38:03.760Z,44.29
2019-04-06T15:40:52.564Z,45.36
2019-04-06T15:43:39.779Z,43.56
2019-04-06T15:46:30.210Z,44.16
2019-04-06T15:49:21.096Z,46.36
2019-04-06T15:52:11.039Z,45.86
2019-04-06T15:54:54.164Z,46.42
2019-04-06T15:57:34.732Z,48.37
2019-04-06T16:00:23.152Z,47.62
2019-04-06T16:03:26.911Z,47.08
2019-04-06T16:06:14.584Z,47.76
2019-04-06T16:08:55.097Z,47.21
2019-04-06T16:11:58.625Z,47.51
2019-04-06T16:14:49.636Z,46.98
2019-04-06T16:17:36.077Z,48.38
2019-04-06T16:20:25.169Z,49.77
2019-04-06T16:23:22.464Z,51.21
2019-04-06T16:26:10.796Z,52.50
2019-04-06T16:28:46.590Z,50.76
2019-04-06T16:31:40.893Z,51.55
2019-04-06T16:34:31.726Z,51.39
2019-04-06T16:37:22.760Z,52.94
2019-04-06T16:40:00.297Z,53.03
2019-04-06T16:42:49.662Z,52.96
2019-04-06T16:45:41.271Z,52.96
2019-04-06T16:48:29.919Z,53.45
2019-04-06T16:51:27.487Z,53.45
2019-04-06T16:54:06.354Z,53.27
2019-04-06T16:56:41.647Z,53.27
2019-04-06T16:59:29.925Z,54.66
2019-04-06T17:02:09.986Z,53.91
2019-04-06T17:04:50.677Z,53.26
2019-04-06T17:07:45.301Z,54.35
2019-04-06T17:10:29.847Z,56.18
2019-04-06T17:13:21.856Z,56.12
2019-04-06T17:16:09.207Z,56.96
2019-04-06T17:19:10.070Z,56.71
2019-04-06T17:22:11.449Z,58.65
2019-04-06T17:25:06.756Z,60.11
2019-04-06T17:28:17.603Z,63.88
2019-04-06T17:31:07.056Z,63.88
2019-04-06T17:33:58.902Z,65.67
2019-04-06T17:36:46.495Z,65.66
2019-04-06T17:39:40.149Z,66.96
2019-04-06T17:42:17.928Z,69.45
2019-04-06T17:45:12.705Z,70.16
2019-04-06T17:48:10.952Z,71.74
2019-04-06T17:50:58.586Z,73.26
2019-04-06T17:53:50.263Z,74.55
2019-04-06T17:56:38.758Z,74.79
2019-04-06T17:59:25.945Z,76.01
2019-04-06T18:02:14.244Z,76.73
2019-04-06T18:05:08.435Z,77.07
2019-04-06T18:07:56.923Z,77.85
2019-04-06T18:10:44.020Z,79.50
2019-04-06T18:13:21.724Z,79.86
2019-04-06T18:15:51.314Z,79.98
2019-04-06T18:18:21.123Z,81.04
2019-04-06T18:20:50.675Z,82.27
2019-04-06T18:23:20.080Z,82.45
2019-04-06T18:25:49.455Z,82.57
2019-04-06T18:28:19.791Z,83.13
2019-04-06T18:30:57.090Z,83.40
2019-04-06T18:33:27.072Z,83.56
2019-04-06T18:35:56.528Z,84.07
2019-04-06T18:38:35.463Z,83.32
2019-04-06T18:41:04.832Z,83.94
2019-04-06T18:43:34.556Z,85.01
2019-04-06T18:46:03.898Z,85.44
2019-04-06T18:48:33.853Z,85.55
2019-04-06T18:51:03.406Z,85.08
2019-04-06T18:53:33.084Z,85.43
2019-04-06T18:56:03.017Z,85.90
2019-04-06T18:58:33.267Z,86.07
2019-04-06T19:01:04.420Z,86.30
2019-04-06T19:03:34.195Z,87.72
2019-04-06T19:06:03.922Z,88.00
2019-04-06T19:08:33.549Z,88.28
2019-04-06T19:11:03.583Z,88.48
2019-04-06T19:13:34.102Z,88.28
2019-04-06T19:16:04.103Z,87.99
2019-04-06T19:18:33.715Z,87.81
2019-04-06T19:21:03.122Z,88.25
2019-04-06T19:23:33.374Z,88.29
2019-04-06T19:26:04.046Z,88.16
2019-04-06T19:28:34.004Z,88.46
2019-04-06T19:31:03.703Z,88.49
2019-04-06T19:33:33.587Z,88.11
2019-04-06T19:36:03.198Z,88.37
2019-04-06T19:38:32.863Z,87.85
2019-04-06T19:41:03.593Z,87.91
2019-04-06T19:43:33.320Z,88.32
2019-04-06T19:46:03.473Z,88.17
2019-04-06T19:48:33.736Z,88.30
2019-04-06T19:51:03.964Z,88.78
2019-04-06T19:53:33.763Z,89.06
2019-04-06T19:56:04.100Z,88.99
2019-04-06T19:58:34.777Z,88.72
2019-04-06T20:01:05.411Z,89.31
2019-04-06T20:03:38.008Z,90.02
2019-04-06T20:06:07.810Z,89.57
2019-04-06T20:08:38.477Z,89.54
2019-04-06T20:11:10.406Z,90.00
2019-04-06T20:13:41.563Z,90.25
2019-04-06T20:16:12.481Z,89.89
2019-04-06T20:18:43.305Z,90.95
2019-04-06T20:21:13.225Z,90.90
2019-04-06T20:23:43.594Z,90.88
2019-04-06T20:26:13.029Z,90.74
2019-04-06T20:28:42.469Z,90.48
2019-04-06T20:31:11.895Z,90.63
2019-04-06T20:33:48.213Z,90.38
2019-04-06T20:36:13.016Z,89.14
2019-04-06T20:38:42.663Z,88.92
2019-04-06T20:41:13.236Z,88.67
2019-04-06T20:43:44.294Z,88.54
2019-04-06T20:46:15.202Z,88.21
2019-04-06T20:48:45.902Z,87.87
2019-04-06T20:51:16.754Z,87.65
2019-04-06T20:53:46.842Z,87.87
2019-04-06T20:56:17.208Z,88.42
2019-04-06T20:58:47.265Z,88.44
2019-04-06T21:01:18.119Z,89.23
2019-04-06T21:03:58.782Z,89.39
2019-04-06T21:06:22.293Z,89.72
2019-04-06T21:08:55.366Z,89.92
2019-04-06T21:11:26.696Z,89.84
2019-04-06T21:13:56.754Z,90.08
2019-04-06T21:16:26.960Z,89.23
2019-04-06T21:18:58.934Z,90.13
2019-04-06T21:21:29.525Z,88.64
2019-04-06T21:24:00.453Z,88.87
2019-04-06T21:26:31.389Z,88.53
2019-04-06T21:29:03.731Z,88.93
2019-04-06T21:31:34.366Z,90.38
2019-04-06T21:34:10.433Z,90.09
2019-04-06T21:36:37.949Z,89.64
2019-04-06T21:39:09.838Z,91.05
2019-04-06T21:41:43.292Z,90.81
2019-04-06T21:44:12.856Z,90.85
2019-04-06T21:46:43.449Z,90.68
2019-04-06T21:49:13.743Z,90.83
2019-04-06T21:51:44.868Z,91.24
2019-04-06T21:54:16.027Z,91.99
2019-04-06T21:56:45.825Z,91.92
2019-04-06T21:59:18.153Z,92.07
2019-04-06T22:02:20.345Z,92.85
2019-04-06T22:04:49.767Z,94.45
2019-04-06T22:07:20.457Z,94.64
2019-04-06T22:09:50.535Z,94.92
2019-04-06T22:12:21.680Z,95.14
2019-04-06T22:14:52.461Z,95.72
2019-04-06T22:17:23.435Z,94.69
2019-04-06T22:19:53.918Z,94.96
2019-04-06T22:22:24.817Z,94.59
2019-04-06T22:24:55.662Z,94.70
2019-04-06T22:27:26.621Z,95.01
2019-04-06T22:29:57.480Z,95.06
2019-04-06T22:32:26.946Z,95.46
2019-04-06T22:34:56.815Z,95.93
2019-04-06T22:37:26.326Z,96.56
2019-04-06T22:39:55.637Z,96.28
2019-04-06T22:42:25.005Z,96.44
2019-04-06T22:44:54.537Z,96.54
2019-04-06T22:47:26.233Z,96.93
2019-04-06T22:49:55.987Z,97.04
2019-04-06T22:52:25.441Z,97.45
2019-04-06T22:54:54.821Z,97.38
2019-04-06T22:57:24.148Z,96.81
2019-04-06T22:59:54.104Z,97.81
2019-04-06T23:02:23.790Z,98.64
2019-04-06T23:05:03.910Z,99.13
2019-04-06T23:07:33.634Z,99.67
2019-04-06T23:10:03.044Z,99.87
2019-04-06T23:12:32.560Z,99.74
2019-04-06T23:15:02.045Z,99.57
2019-04-06T23:17:31.867Z,99.61
2019-04-06T23:20:01.438Z,100.00
2019-04-06T23:22:30.846Z,100.00
2019-04-06T23:25:00.279Z,100.00
2019-04-06T23:27:29.694Z,100.00
2019-04-06T23:29:59.054Z,100.00
2019-04-06T23:32:28.424Z,100.00
2019-04-06T23:35:01.828Z,100.00
2019-04-06T23:37:28.992Z,100.00
2019-04-06T23:39:58.456Z,100.00
2019-04-06T23:42:28.558Z,100.00
2019-04-06T23:44:57.912Z,99.79
2019-04-06T23:47:27.437Z,99.62
2019-04-06T23:49:57.421Z,99.05
2019-04-06T23:52:27.449Z,97.97
2019-04-06T23:54:57.376Z,97.05
2019-04-06T23:57:26.784Z,96.89
2019-04-06T23:59:56.163Z,96.21
